Time;durP1;ratioP1;P1;durP2;ratioP2;P2;SDS_P1;SDS_P2;PMS_P1;PMS_P2;Temp;Humidity;BMP_temperature;BMP_pressure;BME280_temperature;BME280_humidity;BME280_pressure;Samples;Min_cycle;Max_cycle;Signal;HPM_P1;HPM_P2
2022/01/25 00:09:09;;;;;;;59.35;38.53;;;;;;;;;;5012877;28;92363;-69
2022/01/25 00:25:44;;;;;;;56.05;39.38;;;;;;;;;;5000381;28;94710;-69
2022/01/25 00:28:21;;;;;;;58.22;38.92;;;;;;;;;;5009991;28;92533;-69
2022/01/25 00:31:01;;;;;;;56.92;38.67;;;;;;;;;;5013993;28;93005;-69
2022/01/25 00:33:28;;;;;;;58.17;38.63;;;;;;;;;;5023668;27;92489;-69
2022/01/25 00:35:55;;;;;;;59.60;39.10;;;;;;;;;;5028382;27;93922;-69
2022/01/25 00:38:22;;;;;;;57.45;38.20;;;;;;;;;;5026200;28;92604;-69
2022/01/25 00:40:48;;;;;;;60.35;39.28;;;;;;;;;;5015570;28;93305;-69
2022/01/25 00:43:15;;;;;;;62.30;40.83;;;;;;;;;;5014655;28;92503;-69
2022/01/25 00:45:41;;;;;;;58.85;39.85;;;;;;;;;;5030018;28;93128;-69
2022/01/25 00:48:17;;;;;;;59.00;38.65;;;;;;;;;;5031457;27;93301;-69
2022/01/25 00:50:43;;;;;;;60.13;39.13;;;;;;;;;;5014144;28;94792;-69
2022/01/25 00:55:55;;;;;;;62.42;38.85;;;;;;;;;;5033904;27;92420;-69
2022/01/25 00:58:21;;;;;;;61.05;40.47;;;;;;;;;;5007345;27;93010;-69
2022/01/25 01:00:47;;;;;;;61.78;40.40;;;;;;;;;;5010859;28;92250;-69
2022/01/25 01:03:14;;;;;;;58.17;39.42;;;;;;;;;;5022538;28;92786;-69
2022/01/25 01:05:41;;;;;;;67.18;40.63;;;;;;;;;;5033184;27;92466;-69
2022/01/25 01:08:14;;;;;;;59.92;39.80;;;;;;;;;;5020691;27;93619;-69
2022/01/25 01:10:42;;;;;;;64.07;39.50;;;;;;;;;;5012543;28;92513;-69
2022/01/25 01:13:48;;;;;;;59.42;39.05;;;;;;;;;;5013279;28;94296;-69
2022/01/25 01:30:07;;;;;;;65.90;39.33;;;;;;;;;;5025663;27;93240;-69
2022/01/25 01:43:37;;;;;;;61.88;39.40;;;;;;;;;;5025185;28;94782;-69
2022/01/25 01:46:35;;;;;;;62.13;39.97;;;;;;;;;;5024592;27;93764;-69
2022/01/25 01:48:56;;;;;;;63.90;39.83;;;;;;;;;;5011328;28;92368;-69
2022/01/25 01:51:28;;;;;;;64.75;40.47;;;;;;;;;;5022540;27;93440;-69
2022/01/25 01:53:56;;;;;;;58.03;38.88;;;;;;;;;;5013740;28;92472;-69
2022/01/25 01:56:22;;;;;;;62.13;40.45;;;;;;;;;;5034769;27;92658;-69
2022/01/25 01:58:52;;;;;;;65.38;41.60;;;;;;;;;;5016220;27;92444;-69
2022/01/25 02:01:19;;;;;;;64.10;41.20;;;;;;;;;;5014028;28;92226;-69
2022/01/25 02:03:45;;;;;;;65.40;41.80;;;;;;;;;;5027148;27;92528;-69
2022/01/25 02:06:12;;;;;;;65.70;40.10;;;;;;;;;;5011896;28;92348;-69
2022/01/25 02:08:38;;;;;;;65.60;42.03;;;;;;;;;;5030770;27;94795;-69
2022/01/25 02:11:05;;;;;;;63.28;40.78;;;;;;;;;;5023988;27;94300;-69
2022/01/25 02:13:32;;;;;;;63.22;41.97;;;;;;;;;;5011927;28;93473;-69
2022/01/25 02:16:02;;;;;;;63.55;40.85;;;;;;;;;;5020166;28;92394;-69
2022/01/25 02:23:58;;;;;;;61.60;39.78;;;;;;;;;;5008598;28;92263;-69
2022/01/25 02:26:24;;;;;;;58.72;39.25;;;;;;;;;;4995105;28;92749;-69
2022/01/25 02:28:50;;;;;;;63.10;40.83;;;;;;;;;;5012269;28;92447;-69
2022/01/25 02:31:17;;;;;;;65.70;41.65;;;;;;;;;;5016350;28;92322;-69
2022/01/25 02:33:43;;;;;;;62.45;40.88;;;;;;;;;;5029009;27;95727;-69
2022/01/25 02:36:14;;;;;;;64.35;39.15;;;;;;;;;;5016369;27;92502;-69
2022/01/25 02:38:40;;;;;;;67.32;41.22;;;;;;;;;;5011812;28;92669;-69
2022/01/25 02:41:07;;;;;;;64.10;40.88;;;;;;;;;;5017452;28;94428;-69
2022/01/25 02:43:36;;;;;;;63.17;39.50;;;;;;;;;;5022058;27;94328;-69
2022/01/25 02:48:46;;;;;;;63.70;42.40;;;;;;;;;;5010898;28;93570;-69
2022/01/25 02:51:12;;;;;;;66.35;41.58;;;;;;;;;;5019667;28;93474;-69
2022/01/25 02:53:38;;;;;;;66.15;41.60;;;;;;;;;;5030219;27;92543;-69
2022/01/25 02:56:05;;;;;;;64.03;40.85;;;;;;;;;;5031665;27;92979;-69
2022/01/25 02:58:31;;;;;;;64.40;41.05;;;;;;;;;;5000736;27;94901;-69
2022/01/25 03:00:57;;;;;;;64.35;41.10;;;;;;;;;;5013814;28;93292;-69
2022/01/25 03:03:23;;;;;;;63.20;39.33;;;;;;;;;;5029079;27;92655;-69
2022/01/25 03:05:50;;;;;;;70.45;41.00;;;;;;;;;;5011382;28;92443;-69
2022/01/25 03:08:17;;;;;;;69.90;42.90;;;;;;;;;;5023378;28;92399;-69
2022/01/25 03:10:44;;;;;;;66.22;42.15;;;;;;;;;;5028320;27;93258;-69
2022/01/25 03:13:16;;;;;;;68.07;42.97;;;;;;;;;;5017063;28;92370;-69
2022/01/25 03:21:04;;;;;;;70.20;42.28;;;;;;;;;;5016056;28;93579;-69
2022/01/25 03:23:32;;;;;;;64.35;39.92;;;;;;;;;;5024650;28;94815;-69
2022/01/25 03:25:58;;;;;;;67.10;40.58;;;;;;;;;;5007798;28;93205;-69
2022/01/25 03:28:24;;;;;;;67.43;42.65;;;;;;;;;;5032021;28;92829;-69
2022/01/25 03:30:51;;;;;;;71.38;44.60;;;;;;;;;;5023158;27;92297;-69
2022/01/25 03:33:17;;;;;;;73.43;43.58;;;;;;;;;;5020211;28;92722;-69
2022/01/25 03:35:45;;;;;;;69.40;43.65;;;;;;;;;;5014725;28;92382;-69
2022/01/25 03:38:11;;;;;;;70.93;43.53;;;;;;;;;;5025146;28;93008;-69
2022/01/25 03:40:38;;;;;;;72.30;43.92;;;;;;;;;;5034791;27;91735;-69
2022/01/25 03:43:06;;;;;;;75.82;43.80;;;;;;;;;;5024696;28;92690;-69
2022/01/25 03:45:35;;;;;;;71.60;44.55;;;;;;;;;;5019729;27;93228;-69
2022/01/25 03:50:41;;;;;;;70.45;44.47;;;;;;;;;;5023852;28;96908;-69
2022/01/25 03:53:08;;;;;;;67.85;42.60;;;;;;;;;;5017780;28;93168;-69
2022/01/25 03:55:34;;;;;;;67.60;42.47;;;;;;;;;;5034629;27;92730;-69
2022/01/25 03:58:00;;;;;;;68.88;43.33;;;;;;;;;;5020581;27;92563;-69
2022/01/25 04:00:26;;;;;;;65.70;41.13;;;;;;;;;;5001331;28;92412;-69
2022/01/25 04:02:59;;;;;;;68.65;43.22;;;;;;;;;;5018216;27;92554;-69
2022/01/25 04:05:36;;;;;;;72.38;41.08;;;;;;;;;;5032062;28;93932;-69
2022/01/25 04:08:03;;;;;;;65.38;41.50;;;;;;;;;;5027859;27;92497;-69
2022/01/25 04:10:30;;;;;;;70.80;41.83;;;;;;;;;;5013942;28;92298;-69
2022/01/25 04:12:56;;;;;;;68.07;42.42;;;;;;;;;;5012717;28;94821;-69
2022/01/25 04:15:23;;;;;;;69.20;43.30;;;;;;;;;;5013679;28;92824;-69
2022/01/25 04:17:57;;;;;;;66.70;42.15;;;;;;;;;;5026835;28;92687;-69
2022/01/25 04:20:29;;;;;;;73.45;41.97;;;;;;;;;;5021427;27;92235;-69
2022/01/25 04:25:40;;;;;;;66.65;40.85;;;;;;;;;;5013272;27;92390;-69
2022/01/25 04:28:06;;;;;;;66.68;41.90;;;;;;;;;;5032838;27;93230;-69
2022/01/25 04:30:32;;;;;;;65.97;40.55;;;;;;;;;;5037566;27;91777;-69
2022/01/25 04:33:04;;;;;;;69.40;41.50;;;;;;;;;;5016980;27;92515;-69
2022/01/25 04:51:49;;;;;;;71.45;42.97;;;;;;;;;;5029788;28;92520;-69
2022/01/25 04:57:12;;;;;;;72.90;44.20;;;;;;;;;;5033370;27;93304;-69
2022/01/25 04:59:45;;;;;;;71.75;41.95;;;;;;;;;;5009833;28;92371;-69
2022/01/25 05:02:17;;;;;;;67.60;41.50;;;;;;;;;;5010202;28;93088;-69
2022/01/25 05:04:50;;;;;;;67.30;40.58;;;;;;;;;;5027810;28;94753;-69
2022/01/25 05:09:45;;;;;;;70.43;42.35;;;;;;;;;;5024926;28;93245;-69
2022/01/25 05:12:12;;;;;;;71.75;42.25;;;;;;;;;;5032803;27;92436;-69
2022/01/25 05:14:56;;;;;;;67.53;42.15;;;;;;;;;;5014774;27;92443;-69
2022/01/25 05:17:31;;;;;;;64.30;40.38;;;;;;;;;;5016572;28;92870;-69
2022/01/25 05:22:42;;;;;;;68.70;41.17;;;;;;;;;;5024485;27;92335;-69
2022/01/25 05:25:08;;;;;;;70.63;42.85;;;;;;;;;;5000772;27;92729;-69
2022/01/25 05:27:35;;;;;;;70.13;42.40;;;;;;;;;;5030964;28;93893;-69
2022/01/25 05:30:01;;;;;;;70.68;42.78;;;;;;;;;;5029020;27;94896;-69
2022/01/25 05:32:27;;;;;;;67.50;42.40;;;;;;;;;;5032484;27;92568;-69
2022/01/25 05:34:54;;;;;;;71.43;43.40;;;;;;;;;;5016324;27;93211;-69
2022/01/25 05:37:20;;;;;;;79.53;44.17;;;;;;;;;;4999640;28;93124;-69
2022/01/25 05:39:48;;;;;;;76.28;46.28;;;;;;;;;;5012539;28;92462;-69
2022/01/25 05:45:16;;;;;;;74.90;45.92;;;;;;;;;;5014297;28;92441;-69
2022/01/25 05:47:43;;;;;;;71.55;43.38;;;;;;;;;;5025433;28;91724;-69
2022/01/25 05:50:12;;;;;;;75.13;44.10;;;;;;;;;;5032320;27;92657;-69
2022/01/25 05:52:39;;;;;;;74.18;45.58;;;;;;;;;;5014459;27;92526;-69
2022/01/25 05:55:06;;;;;;;72.03;44.28;;;;;;;;;;5013454;28;94719;-69
2022/01/25 05:57:32;;;;;;;75.40;44.90;;;;;;;;;;5012629;28;94383;-69
2022/01/25 06:00:00;;;;;;;78.97;47.88;;;;;;;;;;5035339;27;92412;-69
2022/01/25 06:02:29;;;;;;;75.13;45.97;;;;;;;;;;5031466;27;93400;-69
2022/01/25 06:04:55;;;;;;;88.93;50.00;;;;;;;;;;5017440;27;92438;-69
2022/01/25 06:07:21;;;;;;;85.70;49.85;;;;;;;;;;5022223;28;92297;-69
2022/01/25 06:09:49;;;;;;;83.88;49.33;;;;;;;;;;5020919;27;93473;-69
2022/01/25 06:12:15;;;;;;;83.60;49.72;;;;;;;;;;5012784;28;91576;-69
2022/01/25 06:14:41;;;;;;;87.63;49.67;;;;;;;;;;5016525;28;92850;-69
2022/01/25 06:17:08;;;;;;;94.20;53.50;;;;;;;;;;5011598;28;92554;-69
2022/01/25 06:19:34;;;;;;;86.97;50.55;;;;;;;;;;5009887;28;95246;-69
2022/01/25 06:22:00;;;;;;;88.80;51.75;;;;;;;;;;5017454;28;95230;-69
2022/01/25 06:24:27;;;;;;;84.50;50.70;;;;;;;;;;5021323;27;92421;-69
2022/01/25 06:26:53;;;;;;;93.03;51.72;;;;;;;;;;5026526;28;94225;-69
2022/01/25 06:29:20;;;;;;;89.47;51.88;;;;;;;;;;5012454;28;92420;-69
2022/01/25 06:31:49;;;;;;;94.72;52.92;;;;;;;;;;5012520;28;92364;-69
2022/01/25 06:34:16;;;;;;;92.22;53.78;;;;;;;;;;5000282;28;93214;-69
2022/01/25 06:36:42;;;;;;;97.13;54.83;;;;;;;;;;5014970;28;91584;-69
2022/01/25 06:39:09;;;;;;;88.40;51.95;;;;;;;;;;5020147;27;92878;-69
2022/01/25 06:41:37;;;;;;;90.45;50.28;;;;;;;;;;5011727;28;94239;-69
2022/01/25 06:44:04;;;;;;;86.93;49.17;;;;;;;;;;5018305;28;95484;-69
2022/01/25 06:46:30;;;;;;;91.82;51.15;;;;;;;;;;5012432;28;94288;-69
2022/01/25 06:48:57;;;;;;;86.93;50.03;;;;;;;;;;5011740;28;93413;-69
2022/01/25 06:51:23;;;;;;;88.68;50.22;;;;;;;;;;5012814;27;92688;-69
2022/01/25 06:53:49;;;;;;;95.20;52.17;;;;;;;;;;5021608;28;94302;-69
2022/01/25 06:56:15;;;;;;;93.07;50.40;;;;;;;;;;5027990;27;92515;-69
2022/01/25 06:58:41;;;;;;;93.18;50.65;;;;;;;;;;5015447;28;92268;-69
2022/01/25 07:01:08;;;;;;;90.90;51.83;;;;;;;;;;5021225;28;92698;-69
2022/01/25 07:03:35;;;;;;;93.25;53.42;;;;;;;;;;5033123;28;94452;-69
2022/01/25 07:06:01;;;;;;;93.57;53.08;;;;;;;;;;5024299;27;92830;-69
2022/01/25 07:08:27;;;;;;;90.95;51.40;;;;;;;;;;5014814;28;95929;-69
2022/01/25 07:10:54;;;;;;;85.60;50.53;;;;;;;;;;5014501;27;93051;-69
2022/01/25 07:13:20;;;;;;;89.82;53.47;;;;;;;;;;5022438;28;92390;-69
2022/01/25 07:15:46;;;;;;;94.57;52.97;;;;;;;;;;5016364;27;92296;-69
2022/01/25 07:18:15;;;;;;;96.25;52.25;;;;;;;;;;5014601;28;92324;-69
2022/01/25 07:20:41;;;;;;;90.35;51.72;;;;;;;;;;5018365;28;92440;-69
2022/01/25 07:23:11;;;;;;;94.82;51.65;;;;;;;;;;5014581;28;94455;-69
2022/01/25 07:25:37;;;;;;;90.95;50.65;;;;;;;;;;4997955;28;91704;-69
2022/01/25 07:28:04;;;;;;;90.13;51.67;;;;;;;;;;5033375;27;92580;-69
2022/01/25 07:30:30;;;;;;;95.13;52.17;;;;;;;;;;5015624;28;92442;-69
2022/01/25 07:33:07;;;;;;;92.95;52.97;;;;;;;;;;5013916;28;94855;-69
2022/01/25 07:35:36;;;;;;;94.30;53.38;;;;;;;;;;5027445;28;92355;-72
2022/01/25 07:38:06;;;;;;;91.97;52.95;;;;;;;;;;5000823;28;92445;-71
2022/01/25 07:40:39;;;;;;;92.00;50.80;;;;;;;;;;5017502;28;92449;-71
2022/01/25 07:43:07;;;;;;;93.28;52.28;;;;;;;;;;5028745;27;93111;-71
2022/01/25 07:45:38;;;;;;;94.72;51.85;;;;;;;;;;5020768;27;92427;-70
2022/01/25 07:48:10;;;;;;;93.20;54.47;;;;;;;;;;5017803;28;93302;-70
2022/01/25 07:50:37;;;;;;;96.03;52.78;;;;;;;;;;5014947;28;91813;-71
2022/01/25 07:53:04;;;;;;;94.43;52.17;;;;;;;;;;5026067;28;92420;-71
2022/01/25 07:55:30;;;;;;;93.45;53.60;;;;;;;;;;5014301;28;92687;-70
2022/01/25 07:57:56;;;;;;;87.03;50.00;;;;;;;;;;5012697;28;94767;-71
2022/01/25 08:00:22;;;;;;;96.18;54.05;;;;;;;;;;5017953;28;95410;-70
2022/01/25 08:02:49;;;;;;;92.22;51.75;;;;;;;;;;5014095;28;92286;-70
2022/01/25 08:05:32;;;;;;;94.43;51.67;;;;;;;;;;5013707;28;92300;-70
2022/01/25 08:08:18;;;;;;;91.05;50.65;;;;;;;;;;5008994;27;92838;-70
2022/01/25 08:10:46;;;;;;;91.97;52.97;;;;;;;;;;5015936;28;92481;-71
2022/01/25 08:13:22;;;;;;;97.35;53.10;;;;;;;;;;5011977;28;92377;-70
2022/01/25 08:15:51;;;;;;;91.68;51.47;;;;;;;;;;5007150;28;91901;-72
2022/01/25 08:18:28;;;;;;;93.80;51.55;;;;;;;;;;5007615;28;95178;-70
2022/01/25 08:21:08;;;;;;;92.43;50.70;;;;;;;;;;5013809;28;93616;-70
2022/01/25 08:23:54;;;;;;;90.90;50.95;;;;;;;;;;5006524;28;94980;-70
2022/01/25 08:26:25;;;;;;;98.55;52.47;;;;;;;;;;5014213;28;92389;-69
2022/01/25 08:28:55;;;;;;;96.72;52.60;;;;;;;;;;5012465;28;93198;-70
2022/01/25 08:31:27;;;;;;;92.25;51.90;;;;;;;;;;5013063;28;93104;-71
2022/01/25 08:34:13;;;;;;;97.57;50.97;;;;;;;;;;5012777;28;92424;-69
2022/01/25 08:36:39;;;;;;;95.75;52.75;;;;;;;;;;5013384;28;93860;-70
2022/01/25 08:39:08;;;;;;;103.13;52.85;;;;;;;;;;5013822;28;92552;-69
2022/01/25 08:41:46;;;;;;;97.93;51.42;;;;;;;;;;5010854;28;93217;-68
2022/01/25 08:44:12;;;;;;;94.07;52.55;;;;;;;;;;5013438;28;94428;-69
2022/01/25 08:46:41;;;;;;;95.75;51.08;;;;;;;;;;5013077;28;92413;-69
2022/01/25 08:49:10;;;;;;;95.10;51.35;;;;;;;;;;5011324;28;96285;-68
2022/01/25 08:51:40;;;;;;;90.80;50.30;;;;;;;;;;5013449;28;93383;-69
2022/01/25 08:54:08;;;;;;;96.38;51.17;;;;;;;;;;5013567;28;94041;-70
2022/01/25 08:56:34;;;;;;;96.38;51.47;;;;;;;;;;5016397;28;93278;-71
2022/01/25 08:59:18;;;;;;;96.50;52.30;;;;;;;;;;5013726;28;92588;-70
2022/01/25 09:01:45;;;;;;;92.40;50.25;;;;;;;;;;5012913;28;92329;-71
2022/01/25 09:04:11;;;;;;;103.50;53.03;;;;;;;;;;5013584;28;93596;-70
2022/01/25 09:06:37;;;;;;;96.20;51.83;;;;;;;;;;5013111;28;91619;-69
2022/01/25 09:09:04;;;;;;;95.22;50.63;;;;;;;;;;5013542;28;93393;-70
2022/01/25 09:11:31;;;;;;;95.93;50.00;;;;;;;;;;5012103;28;93584;-69
2022/01/25 09:13:58;;;;;;;94.95;50.30;;;;;;;;;;5007965;28;94767;-66
2022/01/25 09:16:24;;;;;;;97.00;51.13;;;;;;;;;;5011042;28;94805;-69
2022/01/25 09:18:51;;;;;;;101.75;52.60;;;;;;;;;;5014627;28;93394;-69
2022/01/25 09:21:17;;;;;;;97.68;50.72;;;;;;;;;;5016577;28;92927;-69
2022/01/25 09:23:43;;;;;;;92.55;51.85;;;;;;;;;;5010262;28;92639;-70
2022/01/25 09:26:10;;;;;;;101.63;51.97;;;;;;;;;;5006412;28;93507;-72
2022/01/25 09:28:37;;;;;;;100.22;49.90;;;;;;;;;;5023256;28;93442;-71
2022/01/25 09:31:03;;;;;;;98.68;52.90;;;;;;;;;;5017886;27;91654;-71
2022/01/25 09:33:30;;;;;;;103.63;52.60;;;;;;;;;;5017672;28;92469;-71
2022/01/25 09:35:56;;;;;;;95.85;51.03;;;;;;;;;;5012489;28;92386;-71
2022/01/25 09:38:23;;;;;;;96.45;50.70;;;;;;;;;;5012178;28;95784;-71
2022/01/25 09:40:51;;;;;;;99.47;51.13;;;;;;;;;;5013691;28;92525;-70
2022/01/25 09:43:18;;;;;;;101.07;52.55;;;;;;;;;;4993062;28;92718;-71
2022/01/25 09:45:44;;;;;;;95.68;50.08;;;;;;;;;;5003131;28;92606;-71
2022/01/25 09:48:10;;;;;;;99.57;50.90;;;;;;;;;;5012067;28;93236;-71
2022/01/25 09:50:37;;;;;;;98.10;51.50;;;;;;;;;;5011469;28;92410;-70
2022/01/25 09:53:04;;;;;;;86.45;47.83;;;;;;;;;;5023782;28;92388;-70
2022/01/25 09:55:33;;;;;;;94.65;50.88;;;;;;;;;;5011724;28;93049;-69
2022/01/25 09:58:00;;;;;;;96.47;51.03;;;;;;;;;;5012264;28;92758;-71
2022/01/25 10:00:29;;;;;;;93.13;50.88;;;;;;;;;;5015607;28;92515;-70
2022/01/25 10:05:33;;;;;;;102.03;50.67;;;;;;;;;;5013056;28;92340;-71
2022/01/25 10:08:14;;;;;;;95.82;49.35;;;;;;;;;;5012848;28;94343;-71
2022/01/25 10:10:41;;;;;;;90.57;48.60;;;;;;;;;;4996893;28;93222;-69
2022/01/25 10:13:08;;;;;;;100.43;49.75;;;;;;;;;;5012624;28;92854;-72
2022/01/25 10:15:34;;;;;;;97.53;51.05;;;;;;;;;;5018991;28;93364;-70
2022/01/25 10:18:12;;;;;;;98.55;51.03;;;;;;;;;;5016601;27;92958;-70
2022/01/25 10:20:42;;;;;;;98.15;51.50;;;;;;;;;;5012546;28;91643;-71
2022/01/25 10:23:10;;;;;;;99.22;49.95;;;;;;;;;;5028033;28;92512;-70
2022/01/25 10:25:41;;;;;;;94.82;49.00;;;;;;;;;;5020766;27;92506;-71
2022/01/25 10:28:12;;;;;;;98.55;50.05;;;;;;;;;;5029447;28;94787;-70
2022/01/25 10:30:46;;;;;;;98.25;51.65;;;;;;;;;;5011741;28;92418;-69
2022/01/25 10:33:19;;;;;;;96.60;50.05;;;;;;;;;;5012070;28;92367;-71
2022/01/25 10:35:45;;;;;;;98.35;50.13;;;;;;;;;;5023603;28;92583;-71
2022/01/25 10:38:19;;;;;;;98.93;49.50;;;;;;;;;;5012231;28;94602;-71
2022/01/25 10:40:52;;;;;;;92.05;49.78;;;;;;;;;;5011863;28;92775;-71
2022/01/25 10:43:22;;;;;;;91.53;48.95;;;;;;;;;;5012389;28;92308;-71
2022/01/25 10:46:16;;;;;;;107.23;50.60;;;;;;;;;;5017361;28;93887;-71
2022/01/25 10:48:47;;;;;;;92.43;48.50;;;;;;;;;;5003712;28;92494;-71
2022/01/25 10:51:16;;;;;;;94.70;50.75;;;;;;;;;;5012102;28;92737;-72
2022/01/25 10:53:42;;;;;;;93.32;51.05;;;;;;;;;;5010523;28;94874;-71
2022/01/25 10:56:09;;;;;;;96.30;50.47;;;;;;;;;;5011480;27;95806;-71
2022/01/25 10:58:36;;;;;;;99.45;50.58;;;;;;;;;;5024169;28;93382;-71
2022/01/25 11:01:03;;;;;;;90.07;48.10;;;;;;;;;;5015437;27;92437;-71
2022/01/25 11:03:32;;;;;;;95.65;48.35;;;;;;;;;;5012161;28;93837;-72
2022/01/25 11:06:16;;;;;;;99.45;48.40;;;;;;;;;;5012148;28;93657;-70
2022/01/25 11:08:44;;;;;;;93.45;48.00;;;;;;;;;;5031876;28;92499;-70
2022/01/25 11:11:21;;;;;;;99.50;48.67;;;;;;;;;;5015187;27;92899;-69
2022/01/25 11:13:49;;;;;;;100.53;50.17;;;;;;;;;;5012352;28;92580;-70
2022/01/25 11:16:15;;;;;;;95.95;48.97;;;;;;;;;;4999473;28;94247;-72
2022/01/25 11:18:41;;;;;;;90.68;47.38;;;;;;;;;;5020951;28;94771;-70
2022/01/25 11:21:09;;;;;;;98.47;49.03;;;;;;;;;;5012262;28;93649;-70
2022/01/25 11:23:37;;;;;;;95.78;48.30;;;;;;;;;;5011045;28;94190;-70
2022/01/25 11:26:04;;;;;;;99.18;49.30;;;;;;;;;;4998880;28;93594;-71
2022/01/25 11:28:31;;;;;;;93.60;47.35;;;;;;;;;;5012327;28;92468;-71
2022/01/25 11:31:00;;;;;;;95.22;48.20;;;;;;;;;;5014367;28;93212;-70
2022/01/25 11:33:28;;;;;;;98.10;48.70;;;;;;;;;;5010939;28;92344;-70
2022/01/25 11:35:54;;;;;;;100.15;51.15;;;;;;;;;;5011572;28;92081;-70
2022/01/25 11:38:34;;;;;;;91.75;47.20;;;;;;;;;;5010786;28;93596;-70
2022/01/25 11:41:06;;;;;;;92.45;48.70;;;;;;;;;;5018715;28;92366;-70
2022/01/25 11:43:32;;;;;;;88.88;47.97;;;;;;;;;;5022158;27;94806;-70
2022/01/25 11:46:04;;;;;;;92.90;47.17;;;;;;;;;;5018273;28;92466;-71
2022/01/25 11:48:38;;;;;;;88.82;47.97;;;;;;;;;;5016137;28;92540;-70
2022/01/25 11:51:05;;;;;;;99.07;50.28;;;;;;;;;;5018464;28;92650;-70
2022/01/25 11:53:37;;;;;;;97.80;50.13;;;;;;;;;;5014046;28;92476;-71
2022/01/25 11:56:07;;;;;;;96.95;48.38;;;;;;;;;;5022621;28;92407;-70
2022/01/25 11:58:34;;;;;;;;;;;;;;;;;;5016510;27;93226;-70
2022/01/25 12:01:02;;;;;;;89.50;45.15;;;;;;;;;;5014994;28;120590;-71
2022/01/25 12:03:34;;;;;;;93.70;48.83;;;;;;;;;;5015756;28;92462;-73
2022/01/25 12:06:08;;;;;;;93.45;48.20;;;;;;;;;;5016864;28;93785;-71
2022/01/25 12:11:29;;;;;;;90.43;45.65;;;;;;;;;;5013739;28;96614;-70
2022/01/25 12:14:14;;;;;;;91.20;46.08;;;;;;;;;;5036104;28;92424;-69
2022/01/25 12:16:44;;;;;;;98.72;46.80;;;;;;;;;;5034937;28;94305;-69
2022/01/25 12:19:15;;;;;;;98.50;48.37;;;;;;;;;;5033060;27;93246;-69
2022/01/25 12:21:45;;;;;;;92.90;46.60;;;;;;;;;;5023474;28;92398;-69
2022/01/25 12:24:30;;;;;;;92.65;47.55;;;;;;;;;;5013357;28;92885;-69
2022/01/25 12:27:05;;;;;;;94.05;46.78;;;;;;;;;;5009679;28;92880;-69
2022/01/25 12:29:34;;;;;;;93.40;47.80;;;;;;;;;;5014265;28;92427;-70
2022/01/25 12:32:15;;;;;;;97.18;47.40;;;;;;;;;;5012445;28;92441;-68
2022/01/25 12:34:58;;;;;;;91.22;48.15;;;;;;;;;;4998436;28;94843;-71
2022/01/25 12:37:42;;;;;;;96.57;46.58;;;;;;;;;;5017749;28;92291;-71
2022/01/25 12:40:31;;;;;;;94.45;48.88;;;;;;;;;;5014956;28;92518;-70
2022/01/25 12:43:02;;;;;;;94.05;46.45;;;;;;;;;;5013555;28;92420;-71
2022/01/25 12:45:33;;;;;;;88.47;45.53;;;;;;;;;;5014543;28;93296;-71
2022/01/25 12:48:06;;;;;;;89.43;45.58;;;;;;;;;;5013337;28;92733;-71
2022/01/25 12:50:34;;;;;;;87.95;44.78;;;;;;;;;;5027373;28;92395;-70
2022/01/25 12:53:01;;;;;;;98.35;48.30;;;;;;;;;;5013808;28;93297;-70
2022/01/25 12:55:30;;;;;;;92.03;46.83;;;;;;;;;;5014249;28;93005;-70
2022/01/25 12:57:57;;;;;;;98.38;48.15;;;;;;;;;;5011572;28;92464;-70
2022/01/25 13:00:30;;;;;;;91.10;47.22;;;;;;;;;;5023510;28;94828;-70
2022/01/25 13:03:10;;;;;;;99.00;48.63;;;;;;;;;;5026293;27;92325;-71
2022/01/25 13:06:11;;;;;;;87.20;46.00;;;;;;;;;;5020428;28;93408;-70
2022/01/25 13:08:59;;;;;;;100.22;47.20;;;;;;;;;;4951306;28;93675;-70
2022/01/25 13:11:37;;;;;;;91.20;46.08;;;;;;;;;;4944484;28;92595;-70
2022/01/25 13:14:17;;;;;;;91.10;45.78;;;;;;;;;;4937255;28;92478;-70
2022/01/25 13:17:07;;;;;;;93.07;45.80;;;;;;;;;;4934366;28;92871;-70
2022/01/25 13:19:38;;;;;;;86.38;44.25;;;;;;;;;;4942864;28;91875;-70
2022/01/25 13:22:35;;;;;;;95.10;46.50;;;;;;;;;;4941859;28;92501;-70
2022/01/25 13:27:36;;;;;;;86.82;42.88;;;;;;;;;;4911189;28;94879;-70
2022/01/25 13:32:52;;;;;;;85.15;42.78;;;;;;;;;;4950978;28;93053;-70
2022/01/25 13:35:31;;;;;;;90.22;47.42;;;;;;;;;;4934737;28;93318;-70
2022/01/25 13:38:08;;;;;;;88.35;43.97;;;;;;;;;;4931727;28;92524;-70
2022/01/25 13:46:14;;;;;;;89.03;44.85;;;;;;;;;;5012828;28;92673;-70
2022/01/25 13:48:41;;;;;;;88.65;45.70;;;;;;;;;;5015638;28;92384;-70
2022/01/25 13:51:12;;;;;;;86.07;44.78;;;;;;;;;;5012919;28;94232;-70
2022/01/25 13:53:39;;;;;;;97.25;46.30;;;;;;;;;;5024263;28;95308;-70
2022/01/25 13:56:07;;;;;;;96.40;46.63;;;;;;;;;;5023342;28;95650;-71
2022/01/25 13:58:34;;;;;;;96.32;47.45;;;;;;;;;;5013333;27;92521;-71
2022/01/25 14:01:03;;;;;;;95.65;46.83;;;;;;;;;;5009773;28;92513;-70
2022/01/25 14:03:32;;;;;;;96.45;46.90;;;;;;;;;;5009619;28;93080;-70
2022/01/25 14:05:59;;;;;;;91.80;45.65;;;;;;;;;;5015924;28;94394;-68
2022/01/25 14:08:42;;;;;;;91.57;45.67;;;;;;;;;;5036111;27;92373;-70
2022/01/25 14:11:15;;;;;;;87.80;45.00;;;;;;;;;;5013458;27;92892;-71
2022/01/25 14:22:25;;;;;;;91.65;45.33;;;;;;;;;;5012597;28;92394;-71
2022/01/25 14:24:53;;;;;;;89.80;46.20;;;;;;;;;;5012889;28;92632;-70
2022/01/25 14:27:20;;;;;;;86.07;45.13;;;;;;;;;;5011950;28;93432;-71
2022/01/25 14:29:49;;;;;;;89.10;45.72;;;;;;;;;;5013227;28;92473;-71
2022/01/25 14:32:15;;;;;;;88.78;46.22;;;;;;;;;;5015748;28;92595;-71
2022/01/25 14:34:42;;;;;;;90.68;45.58;;;;;;;;;;5012806;28;92446;-70
2022/01/25 14:37:12;;;;;;;94.88;48.80;;;;;;;;;;5013219;28;92031;-70
2022/01/25 14:39:41;;;;;;;94.80;48.92;;;;;;;;;;5022232;28;92512;-70
2022/01/25 14:42:09;;;;;;;91.37;45.07;;;;;;;;;;5032230;27;93817;-70
2022/01/25 14:44:38;;;;;;;90.70;46.85;;;;;;;;;;5030913;27;94642;-70
2022/01/25 14:47:09;;;;;;;94.70;46.03;;;;;;;;;;5025955;27;93981;-71
2022/01/25 14:49:41;;;;;;;82.93;43.67;;;;;;;;;;5012368;28;92375;-71
2022/01/25 14:52:08;;;;;;;87.60;44.70;;;;;;;;;;5012311;28;92974;-71
2022/01/25 14:54:42;;;;;;;95.20;47.22;;;;;;;;;;5014880;28;93355;-70
2022/01/25 14:57:12;;;;;;;92.80;45.33;;;;;;;;;;5023587;28;94398;-71
2022/01/25 14:59:46;;;;;;;93.68;46.88;;;;;;;;;;5032093;27;92618;-71
2022/01/25 15:02:14;;;;;;;96.00;46.10;;;;;;;;;;5032604;27;91646;-71
2022/01/25 15:04:50;;;;;;;89.80;45.22;;;;;;;;;;5029132;27;92411;-70
2022/01/25 15:07:22;;;;;;;85.70;45.40;;;;;;;;;;5028957;27;92368;-71
2022/01/25 15:10:00;;;;;;;82.78;44.08;;;;;;;;;;5029151;27;94851;-70
2022/01/25 15:12:37;;;;;;;97.03;47.63;;;;;;;;;;4991871;28;95580;-71
2022/01/25 15:15:16;;;;;;;87.53;45.83;;;;;;;;;;5018100;28;93157;-71
2022/01/25 15:17:42;;;;;;;91.32;45.15;;;;;;;;;;5038684;27;92674;-71
2022/01/25 15:20:09;;;;;;;87.80;45.67;;;;;;;;;;5035564;27;94488;-71
2022/01/25 15:22:36;;;;;;;98.75;47.78;;;;;;;;;;5016146;27;92390;-71
2022/01/25 15:25:04;;;;;;;97.20;47.78;;;;;;;;;;5003376;28;94048;-71
2022/01/25 15:27:31;;;;;;;89.88;45.13;;;;;;;;;;5016029;28;91631;-71
2022/01/25 15:29:58;;;;;;;94.15;47.35;;;;;;;;;;5014853;28;92418;-71
2022/01/25 15:32:25;;;;;;;86.72;45.63;;;;;;;;;;5015083;28;92741;-71
2022/01/25 15:34:51;;;;;;;88.43;45.72;;;;;;;;;;5013658;28;95947;-71
2022/01/25 15:37:17;;;;;;;86.68;45.70;;;;;;;;;;5014870;28;92437;-71
2022/01/25 15:39:44;;;;;;;84.00;44.83;;;;;;;;;;5017301;28;93135;-71
2022/01/25 15:42:12;;;;;;;89.50;46.50;;;;;;;;;;5016414;28;92336;-71
2022/01/25 15:44:43;;;;;;;92.40;47.22;;;;;;;;;;5015154;28;94396;-70
2022/01/25 15:47:10;;;;;;;90.32;45.28;;;;;;;;;;5002058;28;92380;-70
2022/01/25 15:49:38;;;;;;;94.35;46.40;;;;;;;;;;5015318;28;92493;-70
2022/01/25 15:52:05;;;;;;;96.22;45.28;;;;;;;;;;5014694;28;94242;-70
2022/01/25 15:54:31;;;;;;;87.47;44.60;;;;;;;;;;5015000;28;92453;-70
2022/01/25 15:56:58;;;;;;;88.10;45.85;;;;;;;;;;5015978;28;92434;-71
2022/01/25 15:59:24;;;;;;;93.38;46.17;;;;;;;;;;5013079;28;94834;-71
2022/01/25 16:01:52;;;;;;;84.90;44.45;;;;;;;;;;5022421;28;94084;-71
2022/01/25 16:04:23;;;;;;;89.57;45.15;;;;;;;;;;5034864;27;92600;-71
2022/01/25 16:06:50;;;;;;;90.40;47.35;;;;;;;;;;5031410;27;93415;-71
2022/01/25 16:09:17;;;;;;;93.22;44.78;;;;;;;;;;5035266;27;92436;-71
2022/01/25 16:11:47;;;;;;;90.55;46.97;;;;;;;;;;5021662;27;92453;-71
2022/01/25 16:14:16;;;;;;;90.30;45.47;;;;;;;;;;5015230;28;94433;-71
2022/01/25 16:16:44;;;;;;;95.43;45.65;;;;;;;;;;5014726;28;91607;-71
2022/01/25 16:19:16;;;;;;;84.95;44.53;;;;;;;;;;5014556;28;92344;-71
2022/01/25 16:21:42;;;;;;;88.85;44.40;;;;;;;;;;5008231;28;93204;-70
2022/01/25 16:24:10;;;;;;;100.32;47.15;;;;;;;;;;5025727;27;94744;-70
2022/01/25 16:26:37;;;;;;;100.25;47.38;;;;;;;;;;5014031;28;92369;-70
2022/01/25 16:29:03;;;;;;;93.93;45.85;;;;;;;;;;5014005;28;92560;-70
2022/01/25 16:31:32;;;;;;;88.70;44.03;;;;;;;;;;5008974;28;93238;-70